sensor_id;sensor_type;location;lat;lon;timestamp;temperature;humidity
79494;SHT31;68951;53.130;18.104;2023-11-19T00:00:07;2.98;70.30
79494;SHT31;68951;53.130;18.104;2023-11-19T00:02:58;2.96;70.33
79494;SHT31;68951;53.130;18.104;2023-11-19T00:05:25;2.93;70.35
79494;SHT31;68951;53.130;18.104;2023-11-19T00:07:53;2.89;70.37
79494;SHT31;68951;53.130;18.104;2023-11-19T00:10:20;2.86;70.39
79494;SHT31;68951;53.130;18.104;2023-11-19T00:12:48;2.84;70.40
79494;SHT31;68951;53.130;18.104;2023-11-19T00:15:17;2.78;70.40
79494;SHT31;68951;53.130;18.104;2023-11-19T00:17:45;2.71;70.40
79494;SHT31;68951;53.130;18.104;2023-11-19T00:20:17;2.66;70.45
79494;SHT31;68951;53.130;18.104;2023-11-19T00:22:45;2.62;70.50
79494;SHT31;68951;53.130;18.104;2023-11-19T00:25:17;2.58;70.51
79494;SHT31;68951;53.130;18.104;2023-11-19T00:27:45;2.59;70.57
79494;SHT31;68951;53.130;18.104;2023-11-19T00:30:12;2.60;70.60
79494;SHT31;68951;53.130;18.104;2023-11-19T00:32:40;2.62;70.60
79494;SHT31;68951;53.130;18.104;2023-11-19T00:35:08;2.64;70.60
79494;SHT31;68951;53.130;18.104;2023-11-19T00:37:40;2.64;70.60
79494;SHT31;68951;53.130;18.104;2023-11-19T00:40:09;2.63;70.60
79494;SHT31;68951;53.130;18.104;2023-11-19T00:42:36;2.63;70.61
79494;SHT31;68951;53.130;18.104;2023-11-19T00:45:03;2.59;70.67
79494;SHT31;68951;53.130;18.104;2023-11-19T00:47:35;2.56;70.70
79494;SHT31;68951;53.130;18.104;2023-11-19T00:50:03;2.54;70.71
79494;SHT31;68951;53.130;18.104;2023-11-19T00:52:30;2.51;70.77
79494;SHT31;68951;53.130;18.104;2023-11-19T00:54:57;2.49;70.80
79494;SHT31;68951;53.130;18.104;2023-11-19T00:57:23;2.48;70.82
79494;SHT31;68951;53.130;18.104;2023-11-19T00:59:50;2.48;70.85
79494;SHT31;68951;53.130;18.104;2023-11-19T01:02:17;2.48;70.89
79494;SHT31;68951;53.130;18.104;2023-11-19T01:04:44;2.48;70.90
79494;SHT31;68951;53.130;18.104;2023-11-19T01:07:11;2.49;70.90
79494;SHT31;68951;53.130;18.104;2023-11-19T01:09:41;2.49;70.90
79494;SHT31;68951;53.130;18.104;2023-11-19T01:12:08;2.48;70.90
79494;SHT31;68951;53.130;18.104;2023-11-19T01:14:36;2.46;70.90
79494;SHT31;68951;53.130;18.104;2023-11-19T01:17:03;2.45;70.90
79494;SHT31;68951;53.130;18.104;2023-11-19T01:19:31;2.43;70.93
79494;SHT31;68951;53.130;18.104;2023-11-19T01:21:57;2.38;70.91
79494;SHT31;68951;53.130;18.104;2023-11-19T01:24:24;2.33;70.90
79494;SHT31;68951;53.130;18.104;2023-11-19T01:26:54;2.30;70.90
79494;SHT31;68951;53.130;18.104;2023-11-19T01:29:21;2.26;70.90
79494;SHT31;68951;53.130;18.104;2023-11-19T01:31:48;2.27;70.95
79494;SHT31;68951;53.130;18.104;2023-11-19T01:34:17;2.28;70.96
79494;SHT31;68951;53.130;18.104;2023-11-19T01:36:44;2.29;71.00
79494;SHT31;68951;53.130;18.104;2023-11-19T01:39:12;2.30;71.00
79494;SHT31;68951;53.130;18.104;2023-11-19T01:41:42;2.31;71.00
79494;SHT31;68951;53.130;18.104;2023-11-19T01:44:09;2.31;71.00
79494;SHT31;68951;53.130;18.104;2023-11-19T01:46:38;2.28;71.00
79494;SHT31;68951;53.130;18.104;2023-11-19T01:49:08;2.26;70.99
79494;SHT31;68951;53.130;18.104;2023-11-19T01:51:35;2.21;71.00
79494;SHT31;68951;53.130;18.104;2023-11-19T01:54:02;2.17;71.00
79494;SHT31;68951;53.130;18.104;2023-11-19T01:56:30;2.13;71.05
79494;SHT31;68951;53.130;18.104;2023-11-19T01:58:58;2.08;71.10
79494;SHT31;68951;53.130;18.104;2023-11-19T02:01:25;2.06;71.11
79494;SHT31;68951;53.130;18.104;2023-11-19T02:03:52;2.03;71.20
79494;SHT31;68951;53.130;18.104;2023-11-19T02:06:19;2.04;71.23
79494;SHT31;68951;53.130;18.104;2023-11-19T02:08:46;2.07;71.30
79494;SHT31;68951;53.130;18.104;2023-11-19T02:11:13;2.09;71.37
79494;SHT31;68951;53.130;18.104;2023-11-19T02:13:40;2.14;71.40
79494;SHT31;68951;53.130;18.104;2023-11-19T02:16:07;2.16;71.43
79494;SHT31;68951;53.130;18.104;2023-11-19T02:18:37;2.16;71.40
79494;SHT31;68951;53.130;18.104;2023-11-19T02:21:03;2.14;71.40
79494;SHT31;68951;53.130;18.104;2023-11-19T02:23:31;2.12;71.40
79494;SHT31;68951;53.130;18.104;2023-11-19T02:28:57;2.08;71.40
79494;SHT31;68951;53.130;18.104;2023-11-19T02:31:24;2.04;71.40
79494;SHT31;68951;53.130;18.104;2023-11-19T02:33:51;2.02;71.50
79494;SHT31;68951;53.130;18.104;2023-11-19T02:36:18;1.98;71.50
79494;SHT31;68951;53.130;18.104;2023-11-19T02:38:45;2.00;71.54
79494;SHT31;68951;53.130;18.104;2023-11-19T02:41:11;2.03;71.60
79494;SHT31;68951;53.130;18.104;2023-11-19T02:43:38;2.06;71.60
79494;SHT31;68951;53.130;18.104;2023-11-19T02:46:05;2.07;71.61
79494;SHT31;68951;53.130;18.104;2023-11-19T02:48:34;2.09;71.66
79494;SHT31;68951;53.130;18.104;2023-11-19T02:51:04;2.13;71.70
79494;SHT31;68951;53.130;18.104;2023-11-19T02:53:35;2.16;71.70
79494;SHT31;68951;53.130;18.104;2023-11-19T02:56:06;2.21;71.73
79494;SHT31;68951;53.130;18.104;2023-11-19T02:58:51;2.24;71.78
79494;SHT31;68951;53.130;18.104;2023-11-19T03:01:24;2.27;71.79
79494;SHT31;68951;53.130;18.104;2023-11-19T03:04:02;2.27;71.80
79494;SHT31;68951;53.130;18.104;2023-11-19T03:06:30;2.29;71.81
79494;SHT31;68951;53.130;18.104;2023-11-19T03:08:56;2.29;71.84
79494;SHT31;68951;53.130;18.104;2023-11-19T03:11:23;2.35;71.90
79494;SHT31;68951;53.130;18.104;2023-11-19T03:13:50;2.42;71.90
79494;SHT31;68951;53.130;18.104;2023-11-19T03:16:17;2.47;71.90
79494;SHT31;68951;53.130;18.104;2023-11-19T03:18:44;2.50;71.90
79494;SHT31;68951;53.130;18.104;2023-11-19T03:21:11;2.52;71.90
79494;SHT31;68951;53.130;18.104;2023-11-19T03:23:38;2.59;71.89
79494;SHT31;68951;53.130;18.104;2023-11-19T03:26:06;2.61;71.84
79494;SHT31;68951;53.130;18.104;2023-11-19T03:28:34;2.61;71.81
79494;SHT31;68951;53.130;18.104;2023-11-19T03:31:01;2.59;71.80
79494;SHT31;68951;53.130;18.104;2023-11-19T03:33:34;2.60;71.80
79494;SHT31;68951;53.130;18.104;2023-11-19T03:36:01;2.58;71.80
79494;SHT31;68951;53.130;18.104;2023-11-19T03:38:28;2.56;71.79
79494;SHT31;68951;53.130;18.104;2023-11-19T03:40:54;2.56;71.80
79494;SHT31;68951;53.130;18.104;2023-11-19T03:43:21;2.62;71.80
79494;SHT31;68951;53.130;18.104;2023-11-19T03:45:48;2.66;71.80
79494;SHT31;68951;53.130;18.104;2023-11-19T03:48:15;2.70;71.79
79494;SHT31;68951;53.130;18.104;2023-11-19T03:50:45;2.74;71.80
79494;SHT31;68951;53.130;18.104;2023-11-19T03:53:12;2.78;71.78
79494;SHT31;68951;53.130;18.104;2023-11-19T03:55:39;2.77;71.70
79494;SHT31;68951;53.130;18.104;2023-11-19T03:58:05;2.78;71.70
79494;SHT31;68951;53.130;18.104;2023-11-19T04:00:32;2.75;71.69
79494;SHT31;68951;53.130;18.104;2023-11-19T04:02:59;2.72;71.69
79494;SHT31;68951;53.130;18.104;2023-11-19T04:05:26;2.69;71.67
79494;SHT31;68951;53.130;18.104;2023-11-19T04:07:53;2.69;71.70
79494;SHT31;68951;53.130;18.104;2023-11-19T04:10:20;2.71;71.70
79494;SHT31;68951;53.130;18.104;2023-11-19T04:12:48;2.74;71.70
79494;SHT31;68951;53.130;18.104;2023-11-19T04:15:15;2.74;71.70
79494;SHT31;68951;53.130;18.104;2023-11-19T04:17:42;2.71;71.68
79494;SHT31;68951;53.130;18.104;2023-11-19T04:20:09;2.70;71.67
79494;SHT31;68951;53.130;18.104;2023-11-19T04:22:39;2.73;71.68
79494;SHT31;68951;53.130;18.104;2023-11-19T04:25:07;2.76;71.69
79494;SHT31;68951;53.130;18.104;2023-11-19T04:27:34;2.78;71.68
79494;SHT31;68951;53.130;18.104;2023-11-19T04:30:01;2.77;71.68
79494;SHT31;68951;53.130;18.104;2023-11-19T04:32:30;2.75;71.70
79494;SHT31;68951;53.130;18.104;2023-11-19T04:34:56;2.75;71.70
79494;SHT31;68951;53.130;18.104;2023-11-19T04:37:23;2.76;71.70
79494;SHT31;68951;53.130;18.104;2023-11-19T04:39:50;2.76;71.68
79494;SHT31;68951;53.130;18.104;2023-11-19T04:42:17;2.80;71.66
79494;SHT31;68951;53.130;18.104;2023-11-19T04:44:44;2.83;71.61
79494;SHT31;68951;53.130;18.104;2023-11-19T04:47:11;2.87;71.60
79494;SHT31;68951;53.130;18.104;2023-11-19T04:49:41;2.91;71.60
79494;SHT31;68951;53.130;18.104;2023-11-19T04:52:11;2.96;71.60
79494;SHT31;68951;53.130;18.104;2023-11-19T04:54:44;2.95;71.58
79494;SHT31;68951;53.130;18.104;2023-11-19T04:57:11;2.98;71.54
79494;SHT31;68951;53.130;18.104;2023-11-19T04:59:38;2.97;71.50
79494;SHT31;68951;53.130;18.104;2023-11-19T05:02:05;2.98;71.50
79494;SHT31;68951;53.130;18.104;2023-11-19T05:04:31;2.99;71.42
79494;SHT31;68951;53.130;18.104;2023-11-19T05:06:58;2.98;71.40
79494;SHT31;68951;53.130;18.104;2023-11-19T05:09:25;2.99;71.40
79494;SHT31;68951;53.130;18.104;2023-11-19T05:11:52;2.97;71.40
79494;SHT31;68951;53.130;18.104;2023-11-19T05:14:19;2.97;71.40
79494;SHT31;68951;53.130;18.104;2023-11-19T05:16:47;2.99;71.41
79494;SHT31;68951;53.130;18.104;2023-11-19T05:19:14;3.00;71.41
79494;SHT31;68951;53.130;18.104;2023-11-19T05:21:42;3.00;71.43
79494;SHT31;68951;53.130;18.104;2023-11-19T05:24:09;3.01;71.44
79494;SHT31;68951;53.130;18.104;2023-11-19T05:26:38;3.03;71.43
79494;SHT31;68951;53.130;18.104;2023-11-19T05:29:05;3.08;71.47
79494;SHT31;68951;53.130;18.104;2023-11-19T05:31:32;3.09;71.48
79494;SHT31;68951;53.130;18.104;2023-11-19T05:33:58;3.11;71.44
79494;SHT31;68951;53.130;18.104;2023-11-19T05:36:25;3.10;71.44
79494;SHT31;68951;53.130;18.104;2023-11-19T05:38:54;3.08;71.40
79494;SHT31;68951;53.130;18.104;2023-11-19T05:41:21;3.04;71.41
79494;SHT31;68951;53.130;18.104;2023-11-19T05:43:47;3.06;71.44
79494;SHT31;68951;53.130;18.104;2023-11-19T05:46:14;3.07;71.48
79494;SHT31;68951;53.130;18.104;2023-11-19T05:48:41;3.09;71.48
79494;SHT31;68951;53.130;18.104;2023-11-19T05:51:08;3.07;71.45
79494;SHT31;68951;53.130;18.104;2023-11-19T05:53:34;3.07;71.45
79494;SHT31;68951;53.130;18.104;2023-11-19T05:56:01;3.07;71.46
79494;SHT31;68951;53.130;18.104;2023-11-19T05:58:30;3.05;71.45
79494;SHT31;68951;53.130;18.104;2023-11-19T06:00:58;2.97;71.44
79494;SHT31;68951;53.130;18.104;2023-11-19T06:03:27;2.99;71.51
79494;SHT31;68951;53.130;18.104;2023-11-19T06:05:54;3.01;71.52
79494;SHT31;68951;53.130;18.104;2023-11-19T06:08:20;3.00;71.56
79494;SHT31;68951;53.130;18.104;2023-11-19T06:10:47;3.00;71.60
79494;SHT31;68951;53.130;18.104;2023-11-19T06:13:16;3.03;71.62
79494;SHT31;68951;53.130;18.104;2023-11-19T06:15:43;3.05;71.69
79494;SHT31;68951;53.130;18.104;2023-11-19T06:18:10;3.11;71.69
79494;SHT31;68951;53.130;18.104;2023-11-19T06:20:40;3.14;71.68
79494;SHT31;68951;53.130;18.104;2023-11-19T06:23:07;3.18;71.69
79494;SHT31;68951;53.130;18.104;2023-11-19T06:25:34;3.22;71.68
79494;SHT31;68951;53.130;18.104;2023-11-19T06:28:01;3.29;71.68
79494;SHT31;68951;53.130;18.104;2023-11-19T06:30:29;3.34;71.62
79494;SHT31;68951;53.130;18.104;2023-11-19T06:32:57;3.38;71.60
79494;SHT31;68951;53.130;18.104;2023-11-19T06:35:24;3.40;71.59
79494;SHT31;68951;53.130;18.104;2023-11-19T06:37:51;3.42;71.53
79494;SHT31;68951;53.130;18.104;2023-11-19T06:40:18;3.38;71.50
79494;SHT31;68951;53.130;18.104;2023-11-19T06:42:45;3.38;71.50
79494;SHT31;68951;53.130;18.104;2023-11-19T06:45:11;3.43;71.49
79494;SHT31;68951;53.130;18.104;2023-11-19T06:47:38;3.42;71.47
79494;SHT31;68951;53.130;18.104;2023-11-19T06:50:05;3.38;71.40
79494;SHT31;68951;53.130;18.104;2023-11-19T06:52:33;3.39;71.41
79494;SHT31;68951;53.130;18.104;2023-11-19T06:55:00;3.39;71.38
79494;SHT31;68951;53.130;18.104;2023-11-19T06:57:27;3.41;71.40
79494;SHT31;68951;53.130;18.104;2023-11-19T06:59:55;3.43;71.35
79494;SHT31;68951;53.130;18.104;2023-11-19T07:02:24;3.44;71.30
79494;SHT31;68951;53.130;18.104;2023-11-19T07:04:51;3.47;71.30
79494;SHT31;68951;53.130;18.104;2023-11-19T07:07:18;3.51;71.29
79494;SHT31;68951;53.130;18.104;2023-11-19T07:09:46;3.52;71.21
79494;SHT31;68951;53.130;18.104;2023-11-19T07:12:14;3.48;71.20
79494;SHT31;68951;53.130;18.104;2023-11-19T07:14:41;3.48;71.20
79494;SHT31;68951;53.130;18.104;2023-11-19T07:17:08;3.50;71.20
79494;SHT31;68951;53.130;18.104;2023-11-19T07:19:36;3.57;71.19
79494;SHT31;68951;53.130;18.104;2023-11-19T07:22:04;3.62;71.18
79494;SHT31;68951;53.130;18.104;2023-11-19T07:24:33;3.65;71.14
79494;SHT31;68951;53.130;18.104;2023-11-19T07:27:00;3.68;71.10
79494;SHT31;68951;53.130;18.104;2023-11-19T07:29:29;3.69;71.09
79494;SHT31;68951;53.130;18.104;2023-11-19T07:31:57;3.72;71.02
79494;SHT31;68951;53.130;18.104;2023-11-19T07:34:24;3.72;71.00
79494;SHT31;68951;53.130;18.104;2023-11-19T07:36:51;3.71;70.97
79494;SHT31;68951;53.130;18.104;2023-11-19T07:39:19;3.70;70.92
79494;SHT31;68951;53.130;18.104;2023-11-19T07:41:48;3.72;70.90
79494;SHT31;68951;53.130;18.104;2023-11-19T07:44:15;3.73;70.90
79494;SHT31;68951;53.130;18.104;2023-11-19T07:46:42;3.73;70.84
79494;SHT31;68951;53.130;18.104;2023-11-19T07:49:11;3.78;70.81
79494;SHT31;68951;53.130;18.104;2023-11-19T07:51:37;3.83;70.79
79494;SHT31;68951;53.130;18.104;2023-11-19T07:54:04;3.88;70.73
79494;SHT31;68951;53.130;18.104;2023-11-19T07:56:33;3.91;70.70
79494;SHT31;68951;53.130;18.104;2023-11-19T07:59:03;3.94;70.65
79494;SHT31;68951;53.130;18.104;2023-11-19T08:01:30;3.94;70.60
79494;SHT31;68951;53.130;18.104;2023-11-19T08:03:56;3.98;70.58
79494;SHT31;68951;53.130;18.104;2023-11-19T08:06:23;3.98;70.50
79494;SHT31;68951;53.130;18.104;2023-11-19T08:08:51;4.01;70.43
79494;SHT31;68951;53.130;18.104;2023-11-19T08:11:18;3.99;70.40
79494;SHT31;68951;53.130;18.104;2023-11-19T08:13:46;3.95;70.31
79494;SHT31;68951;53.130;18.104;2023-11-19T08:16:12;3.94;70.30
79494;SHT31;68951;53.130;18.104;2023-11-19T08:18:41;3.92;70.23
79494;SHT31;68951;53.130;18.104;2023-11-19T08:21:09;3.95;70.20
79494;SHT31;68951;53.130;18.104;2023-11-19T08:23:36;3.95;70.19
79494;SHT31;68951;53.130;18.104;2023-11-19T08:26:04;3.96;70.16
79494;SHT31;68951;53.130;18.104;2023-11-19T08:28:32;3.96;70.11
79494;SHT31;68951;53.130;18.104;2023-11-19T08:31:00;3.95;70.10
79494;SHT31;68951;53.130;18.104;2023-11-19T08:33:30;3.94;70.08
79494;SHT31;68951;53.130;18.104;2023-11-19T08:35:57;3.93;70.04
79494;SHT31;68951;53.130;18.104;2023-11-19T08:38:24;3.95;70.00
79494;SHT31;68951;53.130;18.104;2023-11-19T08:40:51;3.94;70.00
79494;SHT31;68951;53.130;18.104;2023-11-19T08:43:18;3.91;70.00
79494;SHT31;68951;53.130;18.104;2023-11-19T08:45:46;3.92;70.01
79494;SHT31;68951;53.130;18.104;2023-11-19T08:48:12;3.87;70.00
79494;SHT31;68951;53.130;18.104;2023-11-19T08:50:39;3.83;70.00
79494;SHT31;68951;53.130;18.104;2023-11-19T08:53:06;3.81;69.99
79494;SHT31;68951;53.130;18.104;2023-11-19T08:55:33;3.85;70.00
79494;SHT31;68951;53.130;18.104;2023-11-19T08:58:00;3.86;70.00
79494;SHT31;68951;53.130;18.104;2023-11-19T09:00:27;3.83;70.01
79494;SHT31;68951;53.130;18.104;2023-11-19T09:02:54;3.85;70.07
79494;SHT31;68951;53.130;18.104;2023-11-19T09:05:20;3.87;70.09
79494;SHT31;68951;53.130;18.104;2023-11-19T09:07:47;3.87;70.10
79494;SHT31;68951;53.130;18.104;2023-11-19T09:10:15;3.87;70.11
79494;SHT31;68951;53.130;18.104;2023-11-19T09:12:42;3.80;70.12
79494;SHT31;68951;53.130;18.104;2023-11-19T09:15:09;3.81;70.19
79494;SHT31;68951;53.130;18.104;2023-11-19T09:17:39;3.85;70.20
79494;SHT31;68951;53.130;18.104;2023-11-19T09:20:07;3.88;70.28
79494;SHT31;68951;53.130;18.104;2023-11-19T09:22:34;3.97;70.30
79494;SHT31;68951;53.130;18.104;2023-11-19T09:25:01;4.01;70.31
79494;SHT31;68951;53.130;18.104;2023-11-19T09:27:28;4.03;70.39
79494;SHT31;68951;53.130;18.104;2023-11-19T09:29:55;4.09;70.41
79494;SHT31;68951;53.130;18.104;2023-11-19T09:32:24;4.14;70.44
79494;SHT31;68951;53.130;18.104;2023-11-19T09:34:51;4.15;70.42
79494;SHT31;68951;53.130;18.104;2023-11-19T09:37:18;4.08;70.43
79494;SHT31;68951;53.130;18.104;2023-11-19T09:39:45;4.17;70.50
79494;SHT31;68951;53.130;18.104;2023-11-19T09:42:12;4.23;70.54
79494;SHT31;68951;53.130;18.104;2023-11-19T09:44:39;4.27;70.54
79494;SHT31;68951;53.130;18.104;2023-11-19T09:47:09;4.17;70.50
79494;SHT31;68951;53.130;18.104;2023-11-19T09:49:39;4.18;70.55
79494;SHT31;68951;53.130;18.104;2023-11-19T09:52:06;4.28;70.60
79494;SHT31;68951;53.130;18.104;2023-11-19T09:54:33;4.33;70.60
79494;SHT31;68951;53.130;18.104;2023-11-19T09:57:00;4.33;70.60
79494;SHT31;68951;53.130;18.104;2023-11-19T09:59:31;4.35;70.60
79494;SHT31;68951;53.130;18.104;2023-11-19T10:01:59;4.37;70.60
79494;SHT31;68951;53.130;18.104;2023-11-19T10:04:28;4.32;70.60
79494;SHT31;68951;53.130;18.104;2023-11-19T10:06:57;4.30;70.59
79494;SHT31;68951;53.130;18.104;2023-11-19T10:09:24;4.33;70.54
79494;SHT31;68951;53.130;18.104;2023-11-19T10:11:51;4.37;70.52
79494;SHT31;68951;53.130;18.104;2023-11-19T10:14:19;4.36;70.50
79494;SHT31;68951;53.130;18.104;2023-11-19T10:16:49;4.38;70.50
79494;SHT31;68951;53.130;18.104;2023-11-19T10:19:19;4.36;70.50
79494;SHT31;68951;53.130;18.104;2023-11-19T10:21:47;4.30;70.48
79494;SHT31;68951;53.130;18.104;2023-11-19T10:24:14;4.27;70.48
79494;SHT31;68951;53.130;18.104;2023-11-19T10:26:41;4.29;70.50
79494;SHT31;68951;53.130;18.104;2023-11-19T10:29:09;4.30;70.50
79494;SHT31;68951;53.130;18.104;2023-11-19T10:31:41;4.26;70.50
79494;SHT31;68951;53.130;18.104;2023-11-19T10:34:26;4.19;70.50
79494;SHT31;68951;53.130;18.104;2023-11-19T10:36:53;4.24;70.55
79494;SHT31;68951;53.130;18.104;2023-11-19T10:39:20;4.27;70.60
79494;SHT31;68951;53.130;18.104;2023-11-19T10:41:49;4.31;70.60
79494;SHT31;68951;53.130;18.104;2023-11-19T10:44:30;4.32;70.62
79494;SHT31;68951;53.130;18.104;2023-11-19T10:47:05;4.31;70.70
79494;SHT31;68951;53.130;18.104;2023-11-19T10:49:35;4.38;70.74
79494;SHT31;68951;53.130;18.104;2023-11-19T10:52:02;4.32;70.74
79494;SHT31;68951;53.130;18.104;2023-11-19T10:54:31;4.26;70.79
79494;SHT31;68951;53.130;18.104;2023-11-19T10:57:01;4.20;70.80
79494;SHT31;68951;53.130;18.104;2023-11-19T10:59:30;4.18;70.89
79494;SHT31;68951;53.130;18.104;2023-11-19T11:01:58;4.21;70.94
79494;SHT31;68951;53.130;18.104;2023-11-19T11:04:33;4.30;71.00
79494;SHT31;68951;53.130;18.104;2023-11-19T11:07:08;4.34;71.09
79494;SHT31;68951;53.130;18.104;2023-11-19T11:09:35;4.40;71.10
79494;SHT31;68951;53.130;18.104;2023-11-19T11:12:02;4.44;71.16
79494;SHT31;68951;53.130;18.104;2023-11-19T11:14:32;4.40;71.15
79494;SHT31;68951;53.130;18.104;2023-11-19T11:17:02;4.30;71.19
79494;SHT31;68951;53.130;18.104;2023-11-19T11:19:29;4.25;71.22
79494;SHT31;68951;53.130;18.104;2023-11-19T11:21:56;4.27;71.30
79494;SHT31;68951;53.130;18.104;2023-11-19T11:27:36;4.30;71.40
79494;SHT31;68951;53.130;18.104;2023-11-19T11:33:32;4.38;71.52
79494;SHT31;68951;53.130;18.104;2023-11-19T11:36:17;4.39;71.58
79494;SHT31;68951;53.130;18.104;2023-11-19T11:38:49;4.39;71.60
79494;SHT31;68951;53.130;18.104;2023-11-19T11:41:17;4.38;71.60
79494;SHT31;68951;53.130;18.104;2023-11-19T11:49:03;4.29;71.66
79494;SHT31;68951;53.130;18.104;2023-11-19T11:54:10;4.23;71.71
79494;SHT31;68951;53.130;18.104;2023-11-19T11:57:06;4.18;71.77
79494;SHT31;68951;53.130;18.104;2023-11-19T12:02:10;4.18;71.84
79494;SHT31;68951;53.130;18.104;2023-11-19T12:04:39;4.15;71.90
79494;SHT31;68951;53.130;18.104;2023-11-19T12:09:51;4.15;71.99
79494;SHT31;68951;53.130;18.104;2023-11-19T12:12:48;4.05;72.01
79494;SHT31;68951;53.130;18.104;2023-11-19T12:15:14;3.98;72.06
79494;SHT31;68951;53.130;18.104;2023-11-19T12:17:42;3.97;72.12
79494;SHT31;68951;53.130;18.104;2023-11-19T12:20:20;3.94;72.19
79494;SHT31;68951;53.130;18.104;2023-11-19T12:22:49;3.94;72.25
79494;SHT31;68951;53.130;18.104;2023-11-19T12:25:19;3.96;72.30
79494;SHT31;68951;53.130;18.104;2023-11-19T12:27:47;3.98;72.32
79494;SHT31;68951;53.130;18.104;2023-11-19T12:30:22;4.03;72.40
79494;SHT31;68951;53.130;18.104;2023-11-19T12:32:51;4.07;72.40
79494;SHT31;68951;53.130;18.104;2023-11-19T12:35:21;4.10;72.40
79494;SHT31;68951;53.130;18.104;2023-11-19T12:37:50;4.09;72.40
79494;SHT31;68951;53.130;18.104;2023-11-19T12:40:22;4.05;72.41
79494;SHT31;68951;53.130;18.104;2023-11-19T12:42:51;4.02;72.46
79494;SHT31;68951;53.130;18.104;2023-11-19T12:45:20;4.01;72.50
79494;SHT31;68951;53.130;18.104;2023-11-19T12:47:49;3.99;72.55
79494;SHT31;68951;53.130;18.104;2023-11-19T12:50:30;3.89;72.60
79494;SHT31;68951;53.130;18.104;2023-11-19T12:53:18;3.84;72.67
79494;SHT31;68951;53.130;18.104;2023-11-19T12:55:46;3.75;72.71
79494;SHT31;68951;53.130;18.104;2023-11-19T12:58:32;3.77;72.81
79494;SHT31;68951;53.130;18.104;2023-11-19T13:01:03;3.84;72.90
79494;SHT31;68951;53.130;18.104;2023-11-19T13:03:33;3.92;72.90
79494;SHT31;68951;53.130;18.104;2023-11-19T13:06:03;3.95;72.92
79494;SHT31;68951;53.130;18.104;2023-11-19T13:11:09;4.01;72.98
79494;SHT31;68951;53.130;18.104;2023-11-19T13:14:00;4.06;73.00
79494;SHT31;68951;53.130;18.104;2023-11-19T13:16:32;4.06;73.00
79494;SHT31;68951;53.130;18.104;2023-11-19T13:18:58;4.02;72.96
79494;SHT31;68951;53.130;18.104;2023-11-19T13:21:26;4.01;73.00
79494;SHT31;68951;53.130;18.104;2023-11-19T13:23:53;4.04;73.00
79494;SHT31;68951;53.130;18.104;2023-11-19T13:26:20;4.06;73.00
79494;SHT31;68951;53.130;18.104;2023-11-19T13:28:46;4.09;73.00
79494;SHT31;68951;53.130;18.104;2023-11-19T13:31:13;4.16;73.03
79494;SHT31;68951;53.130;18.104;2023-11-19T13:33:40;4.16;73.06
79494;SHT31;68951;53.130;18.104;2023-11-19T13:36:08;4.14;73.10
79494;SHT31;68951;53.130;18.104;2023-11-19T13:38:35;4.15;73.12
79494;SHT31;68951;53.130;18.104;2023-11-19T13:41:03;4.20;73.17
79494;SHT31;68951;53.130;18.104;2023-11-19T13:43:31;4.22;73.16
79494;SHT31;68951;53.130;18.104;2023-11-19T13:45:58;4.21;73.16
79494;SHT31;68951;53.130;18.104;2023-11-19T13:48:25;4.18;73.10
79494;SHT31;68951;53.130;18.104;2023-11-19T13:50:56;4.16;73.10
79494;SHT31;68951;53.130;18.104;2023-11-19T13:53:22;4.11;73.10
79494;SHT31;68951;53.130;18.104;2023-11-19T13:55:50;4.13;73.11
79494;SHT31;68951;53.130;18.104;2023-11-19T13:58:16;4.18;73.10
79494;SHT31;68951;53.130;18.104;2023-11-19T14:00:43;4.23;73.10
79494;SHT31;68951;53.130;18.104;2023-11-19T14:03:10;4.20;73.10
79494;SHT31;68951;53.130;18.104;2023-11-19T14:05:37;4.20;73.10
79494;SHT31;68951;53.130;18.104;2023-11-19T14:08:07;4.19;73.10
79494;SHT31;68951;53.130;18.104;2023-11-19T14:10:40;4.18;73.10
79494;SHT31;68951;53.130;18.104;2023-11-19T14:13:07;4.17;73.10
79494;SHT31;68951;53.130;18.104;2023-11-19T14:15:34;4.12;73.09
79494;SHT31;68951;53.130;18.104;2023-11-19T14:18:02;4.10;73.10
79494;SHT31;68951;53.130;18.104;2023-11-19T14:20:29;4.04;73.10
79494;SHT31;68951;53.130;18.104;2023-11-19T14:22:56;4.05;73.11
79494;SHT31;68951;53.130;18.104;2023-11-19T14:25:23;4.06;73.15
79494;SHT31;68951;53.130;18.104;2023-11-19T14:27:50;4.12;73.19
79494;SHT31;68951;53.130;18.104;2023-11-19T14:30:17;4.10;73.20
79494;SHT31;68951;53.130;18.104;2023-11-19T14:32:44;4.09;73.20
79494;SHT31;68951;53.130;18.104;2023-11-19T14:35:13;4.07;73.20
79494;SHT31;68951;53.130;18.104;2023-11-19T14:37:40;4.07;73.20
79494;SHT31;68951;53.130;18.104;2023-11-19T14:40:07;4.06;73.22
79494;SHT31;68951;53.130;18.104;2023-11-19T14:42:36;4.00;73.22
79494;SHT31;68951;53.130;18.104;2023-11-19T14:45:05;4.01;73.29
79494;SHT31;68951;53.130;18.104;2023-11-19T14:47:38;4.02;73.30
79494;SHT31;68951;53.130;18.104;2023-11-19T14:50:06;4.01;73.30
79494;SHT31;68951;53.130;18.104;2023-11-19T14:52:35;4.00;73.31
79494;SHT31;68951;53.130;18.104;2023-11-19T14:55:03;3.95;73.31
79494;SHT31;68951;53.130;18.104;2023-11-19T14:57:32;3.89;73.38
79494;SHT31;68951;53.130;18.104;2023-11-19T15:00:00;3.87;73.40
79494;SHT31;68951;53.130;18.104;2023-11-19T15:02:32;3.85;73.40
79494;SHT31;68951;53.130;18.104;2023-11-19T15:05:00;3.85;73.48
79494;SHT31;68951;53.130;18.104;2023-11-19T15:07:27;3.86;73.50
79494;SHT31;68951;53.130;18.104;2023-11-19T15:09:54;3.85;73.50
79494;SHT31;68951;53.130;18.104;2023-11-19T15:12:22;3.86;73.56
79494;SHT31;68951;53.130;18.104;2023-11-19T15:14:50;3.86;73.57
79494;SHT31;68951;53.130;18.104;2023-11-19T15:17:17;3.92;73.60
79494;SHT31;68951;53.130;18.104;2023-11-19T15:19:44;3.95;73.60
79494;SHT31;68951;53.130;18.104;2023-11-19T15:22:14;3.99;73.60
79494;SHT31;68951;53.130;18.104;2023-11-19T15:24:42;4.01;73.61
79494;SHT31;68951;53.130;18.104;2023-11-19T15:27:10;4.04;73.62
79494;SHT31;68951;53.130;18.104;2023-11-19T15:29:38;4.07;73.60
79494;SHT31;68951;53.130;18.104;2023-11-19T15:32:06;4.08;73.60
79494;SHT31;68951;53.130;18.104;2023-11-19T15:34:33;4.03;73.60
79494;SHT31;68951;53.130;18.104;2023-11-19T15:37:01;3.99;73.60
79494;SHT31;68951;53.130;18.104;2023-11-19T15:39:28;4.01;73.62
79494;SHT31;68951;53.130;18.104;2023-11-19T15:41:55;4.07;73.70
79494;SHT31;68951;53.130;18.104;2023-11-19T15:44:24;4.08;73.70
79494;SHT31;68951;53.130;18.104;2023-11-19T15:46:51;4.06;73.68
79494;SHT31;68951;53.130;18.104;2023-11-19T15:49:20;4.05;73.64
79494;SHT31;68951;53.130;18.104;2023-11-19T15:51:47;4.07;73.66
79494;SHT31;68951;53.130;18.104;2023-11-19T15:54:13;4.08;73.64
79494;SHT31;68951;53.130;18.104;2023-11-19T15:56:40;4.03;73.62
79494;SHT31;68951;53.130;18.104;2023-11-19T15:59:07;4.01;73.66
79494;SHT31;68951;53.130;18.104;2023-11-19T16:01:34;3.99;73.69